sensor_id;sensor_type;location;lat;lon;timestamp;temperature;humidity
63960;DHT22;50136;51.374;0.096;2022-09-20T00:05:49;14.30;99.90
63960;DHT22;50136;51.374;0.096;2022-09-20T00:15:51;14.10;99.90
63960;DHT22;50136;51.374;0.096;2022-09-20T00:25:55;13.80;99.90
63960;DHT22;50136;51.374;0.096;2022-09-20T00:35:57;13.50;99.90
63960;DHT22;50136;51.374;0.096;2022-09-20T00:46:01;13.20;99.90
63960;DHT22;50136;51.374;0.096;2022-09-20T00:56:07;13.00;99.90
63960;DHT22;50136;51.374;0.096;2022-09-20T01:06:14;12.90;99.90
63960;DHT22;50136;51.374;0.096;2022-09-20T01:16:17;12.80;99.90
63960;DHT22;50136;51.374;0.096;2022-09-20T01:27:00;12.60;99.90
63960;DHT22;50136;51.374;0.096;2022-09-20T01:37:12;12.40;99.90
63960;DHT22;50136;51.374;0.096;2022-09-20T01:47:23;12.20;99.90
63960;DHT22;50136;51.374;0.096;2022-09-20T02:08:31;11.80;99.90
63960;DHT22;50136;51.374;0.096;2022-09-20T02:18:46;11.80;99.90
63960;DHT22;50136;51.374;0.096;2022-09-20T02:29:00;11.70;99.90
63960;DHT22;50136;51.374;0.096;2022-09-20T02:39:09;11.80;99.90
63960;DHT22;50136;51.374;0.096;2022-09-20T02:49:20;11.70;99.90
63960;DHT22;50136;51.374;0.096;2022-09-20T02:59:29;11.80;99.90
63960;DHT22;50136;51.374;0.096;2022-09-20T03:09:42;11.80;99.90
63960;DHT22;50136;51.374;0.096;2022-09-20T03:19:54;11.90;99.90
63960;DHT22;50136;51.374;0.096;2022-09-20T03:30:13;11.80;99.90
63960;DHT22;50136;51.374;0.096;2022-09-20T03:51:11;12.00;99.90
63960;DHT22;50136;51.374;0.096;2022-09-20T04:01:31;12.00;99.90
63960;DHT22;50136;51.374;0.096;2022-09-20T04:11:42;12.00;99.90
63960;DHT22;50136;51.374;0.096;2022-09-20T04:21:53;11.90;99.90
63960;DHT22;50136;51.374;0.096;2022-09-20T04:32:03;11.80;99.90
63960;DHT22;50136;51.374;0.096;2022-09-20T04:42:40;11.60;99.90
63960;DHT22;50136;51.374;0.096;2022-09-20T05:03:44;11.20;99.90
63960;DHT22;50136;51.374;0.096;2022-09-20T05:24:50;10.80;99.90
63960;DHT22;50136;51.374;0.096;2022-09-20T05:35:00;10.60;99.90
63960;DHT22;50136;51.374;0.096;2022-09-20T05:45:30;10.50;99.90
63960;DHT22;50136;51.374;0.096;2022-09-20T05:56:01;10.40;99.90
63960;DHT22;50136;51.374;0.096;2022-09-20T06:06:12;10.30;99.90
63960;DHT22;50136;51.374;0.096;2022-09-20T06:16:20;10.30;99.90
63960;DHT22;50136;51.374;0.096;2022-09-20T06:26:28;10.30;99.90
63960;DHT22;50136;51.374;0.096;2022-09-20T06:36:33;10.40;99.90
63960;DHT22;50136;51.374;0.096;2022-09-20T06:46:37;10.50;99.90
63960;DHT22;50136;51.374;0.096;2022-09-20T06:56:39;10.50;99.90
63960;DHT22;50136;51.374;0.096;2022-09-20T07:06:42;10.60;99.90
63960;DHT22;50136;51.374;0.096;2022-09-20T07:16:44;11.00;99.90
63960;DHT22;50136;51.374;0.096;2022-09-20T07:26:58;11.30;99.90
63960;DHT22;50136;51.374;0.096;2022-09-20T07:37:00;11.70;99.90
63960;DHT22;50136;51.374;0.096;2022-09-20T07:47:04;12.20;99.90
63960;DHT22;50136;51.374;0.096;2022-09-20T07:57:05;12.70;99.90
63960;DHT22;50136;51.374;0.096;2022-09-20T08:07:09;13.10;99.90
63960;DHT22;50136;51.374;0.096;2022-09-20T08:17:11;13.70;99.90
63960;DHT22;50136;51.374;0.096;2022-09-20T08:27:14;14.10;99.90
63960;DHT22;50136;51.374;0.096;2022-09-20T08:37:29;14.60;99.90
63960;DHT22;50136;51.374;0.096;2022-09-20T08:47:34;15.40;99.90
63960;DHT22;50136;51.374;0.096;2022-09-20T08:57:37;15.70;99.90
63960;DHT22;50136;51.374;0.096;2022-09-20T09:07:41;16.40;99.90
63960;DHT22;50136;51.374;0.096;2022-09-20T09:17:43;19.30;99.60
63960;DHT22;50136;51.374;0.096;2022-09-20T09:27:52;21.70;97.70
63960;DHT22;50136;51.374;0.096;2022-09-20T09:37:56;22.30;93.10
63960;DHT22;50136;51.374;0.096;2022-09-20T09:48:00;21.50;94.90
63960;DHT22;50136;51.374;0.096;2022-09-20T09:58:07;21.60;93.80
63960;DHT22;50136;51.374;0.096;2022-09-20T10:08:20;20.70;91.70
63960;DHT22;50136;51.374;0.096;2022-09-20T10:18:37;20.10;90.80
63960;DHT22;50136;51.374;0.096;2022-09-20T10:28:53;20.60;91.60
63960;DHT22;50136;51.374;0.096;2022-09-20T10:39:04;20.60;91.10
63960;DHT22;50136;51.374;0.096;2022-09-20T10:49:19;20.40;92.20
63960;DHT22;50136;51.374;0.096;2022-09-20T10:59:34;20.50;91.20
63960;DHT22;50136;51.374;0.096;2022-09-20T11:09:41;20.40;90.80
63960;DHT22;50136;51.374;0.096;2022-09-20T11:19:52;19.70;92.20
63960;DHT22;50136;51.374;0.096;2022-09-20T11:30:01;20.00;91.20
63960;DHT22;50136;51.374;0.096;2022-09-20T11:40:11;20.20;91.60
63960;DHT22;50136;51.374;0.096;2022-09-20T12:00:55;20.30;90.30
63960;DHT22;50136;51.374;0.096;2022-09-20T12:11:02;20.00;91.40
63960;DHT22;50136;51.374;0.096;2022-09-20T12:21:10;20.00;90.80
63960;DHT22;50136;51.374;0.096;2022-09-20T12:31:44;19.70;91.20
63960;DHT22;50136;51.374;0.096;2022-09-20T12:41:49;20.00;91.00
63960;DHT22;50136;51.374;0.096;2022-09-20T12:51:53;20.00;91.80
63960;DHT22;50136;51.374;0.096;2022-09-20T13:01:55;20.00;91.50
63960;DHT22;50136;51.374;0.096;2022-09-20T13:12:00;20.00;90.80
63960;DHT22;50136;51.374;0.096;2022-09-20T13:22:05;20.20;91.40
63960;DHT22;50136;51.374;0.096;2022-09-20T13:32:19;19.90;91.50
63960;DHT22;50136;51.374;0.096;2022-09-20T13:42:23;19.90;91.20
63960;DHT22;50136;51.374;0.096;2022-09-20T13:52:29;20.00;91.40
63960;DHT22;50136;51.374;0.096;2022-09-20T14:02:32;19.90;91.60
63960;DHT22;50136;51.374;0.096;2022-09-20T14:12:36;19.90;91.50
63960;DHT22;50136;51.374;0.096;2022-09-20T14:22:39;19.90;91.70
63960;DHT22;50136;51.374;0.096;2022-09-20T14:32:48;20.10;92.10
63960;DHT22;50136;51.374;0.096;2022-09-20T14:42:53;19.80;91.70
63960;DHT22;50136;51.374;0.096;2022-09-20T14:53:19;20.30;91.90
63960;DHT22;50136;51.374;0.096;2022-09-20T15:03:25;20.20;91.10
63960;DHT22;50136;51.374;0.096;2022-09-20T15:13:28;20.10;90.80
63960;DHT22;50136;51.374;0.096;2022-09-20T15:23:31;19.80;92.10
63960;DHT22;50136;51.374;0.096;2022-09-20T15:33:34;20.30;92.00
63960;DHT22;50136;51.374;0.096;2022-09-20T15:43:37;20.00;92.30
63960;DHT22;50136;51.374;0.096;2022-09-20T15:53:42;20.20;91.70
63960;DHT22;50136;51.374;0.096;2022-09-20T16:03:45;19.70;92.10
63960;DHT22;50136;51.374;0.096;2022-09-20T16:13:53;19.40;92.50
63960;DHT22;50136;51.374;0.096;2022-09-20T16:23:56;19.10;92.60
63960;DHT22;50136;51.374;0.096;2022-09-20T16:34:00;18.90;93.00
63960;DHT22;50136;51.374;0.096;2022-09-20T16:44:02;18.80;93.40
63960;DHT22;50136;51.374;0.096;2022-09-20T16:54:07;18.70;93.50
63960;DHT22;50136;51.374;0.096;2022-09-20T17:04:10;18.70;93.50
63960;DHT22;50136;51.374;0.096;2022-09-20T17:14:15;18.60;93.90
63960;DHT22;50136;51.374;0.096;2022-09-20T17:24:18;18.50;94.10
63960;DHT22;50136;51.374;0.096;2022-09-20T17:34:22;18.30;94.50
63960;DHT22;50136;51.374;0.096;2022-09-20T17:44:24;18.20;95.00
63960;DHT22;50136;51.374;0.096;2022-09-20T17:54:28;18.00;95.50
63960;DHT22;50136;51.374;0.096;2022-09-20T18:04:40;17.90;95.60
63960;DHT22;50136;51.374;0.096;2022-09-20T18:14:49;17.80;95.70
63960;DHT22;50136;51.374;0.096;2022-09-20T18:24:51;17.70;96.20
63960;DHT22;50136;51.374;0.096;2022-09-20T18:34:54;17.50;96.20
63960;DHT22;50136;51.374;0.096;2022-09-20T18:44:56;17.30;96.60
63960;DHT22;50136;51.374;0.096;2022-09-20T18:55:00;17.20;97.10
63960;DHT22;50136;51.374;0.096;2022-09-20T19:05:16;16.90;98.00
63960;DHT22;50136;51.374;0.096;2022-09-20T19:15:43;16.60;99.40
63960;DHT22;50136;51.374;0.096;2022-09-20T19:26:17;16.50;99.90
63960;DHT22;50136;51.374;0.096;2022-09-20T19:36:22;16.30;99.90
63960;DHT22;50136;51.374;0.096;2022-09-20T19:46:39;16.20;99.90
63960;DHT22;50136;51.374;0.096;2022-09-20T19:56:53;16.00;99.90
63960;DHT22;50136;51.374;0.096;2022-09-20T20:07:01;15.90;99.90
63960;DHT22;50136;51.374;0.096;2022-09-20T20:17:18;15.70;99.90
63960;DHT22;50136;51.374;0.096;2022-09-20T20:27:23;15.50;99.90
63960;DHT22;50136;51.374;0.096;2022-09-20T20:37:27;15.40;99.90
63960;DHT22;50136;51.374;0.096;2022-09-20T20:47:29;15.20;99.90
63960;DHT22;50136;51.374;0.096;2022-09-20T20:57:32;15.10;99.90
63960;DHT22;50136;51.374;0.096;2022-09-20T21:07:34;14.90;99.90
63960;DHT22;50136;51.374;0.096;2022-09-20T21:17:37;14.70;99.90
63960;DHT22;50136;51.374;0.096;2022-09-20T21:27:39;14.50;99.90
63960;DHT22;50136;51.374;0.096;2022-09-20T21:37:44;14.40;99.90
63960;DHT22;50136;51.374;0.096;2022-09-20T21:47:47;14.20;99.90
63960;DHT22;50136;51.374;0.096;2022-09-20T21:57:51;14.10;99.90
63960;DHT22;50136;51.374;0.096;2022-09-20T22:07:53;14.00;99.90
63960;DHT22;50136;51.374;0.096;2022-09-20T22:17:57;13.80;99.90
63960;DHT22;50136;51.374;0.096;2022-09-20T22:27:59;13.80;99.90
63960;DHT22;50136;51.374;0.096;2022-09-20T22:38:02;13.70;99.90
63960;DHT22;50136;51.374;0.096;2022-09-20T22:48:04;13.60;99.90
63960;DHT22;50136;51.374;0.096;2022-09-20T22:58:08;13.60;99.90
63960;DHT22;50136;51.374;0.096;2022-09-20T23:08:10;13.70;99.90
63960;DHT22;50136;51.374;0.096;2022-09-20T23:18:13;13.60;99.90
63960;DHT22;50136;51.374;0.096;2022-09-20T23:28:15;13.60;99.90
63960;DHT22;50136;51.374;0.096;2022-09-20T23:38:21;13.50;99.90
63960;DHT22;50136;51.374;0.096;2022-09-20T23:48:24;13.50;99.90
63960;DHT22;50136;51.374;0.096;2022-09-20T23:58:27;13.50;99.90
